Time;durP1;ratioP1;P1;durP2;ratioP2;P2;SDS_P1;SDS_P2;PMS_P1;PMS_P2;Temp;Humidity;BMP_temperature;BMP_pressure;BME280_temperature;BME280_humidity;BME280_pressure;Samples;Min_cycle;Max_cycle;Signal;HPM_P1;HPM_P2
2023/09/16 00:01:59;;;;;;;11.20;6.50;;;15.00;99.90;;;;;;4995906;28;20552;-83
2023/09/16 00:04:24;;;;;;;9.63;6.22;;;14.90;99.90;;;;;;5000726;28;20486;-83
2023/09/16 00:06:50;;;;;;;9.48;5.85;;;14.90;99.90;;;;;;5008191;28;20034;-84
2023/09/16 00:09:16;;;;;;;7.63;5.15;;;14.90;99.90;;;;;;4998105;28;20482;-84
2023/09/16 00:11:42;;;;;;;6.20;5.60;;;14.90;99.90;;;;;;4991555;28;20034;-83
2023/09/16 00:14:08;;;;;;;7.13;5.40;;;14.90;99.90;;;;;;4998121;28;20394;-83
2023/09/16 00:16:33;;;;;;;8.40;5.57;;;14.90;99.90;;;;;;4992691;28;20101;-83
2023/09/16 00:18:59;;;;;;;7.43;5.20;;;14.90;99.90;;;;;;4998850;28;20498;-83
2023/09/16 00:21:25;;;;;;;8.10;5.68;;;14.90;99.90;;;;;;4994605;28;20041;-83
2023/09/16 00:23:52;;;;;;;7.78;5.28;;;14.80;99.90;;;;;;5002631;28;20088;-83
2023/09/16 00:26:18;;;;;;;7.00;5.70;;;14.80;99.90;;;;;;4996424;28;20054;-83
2023/09/16 00:28:47;;;;;;;11.32;5.60;;;14.80;99.90;;;;;;5002192;28;20030;-83
2023/09/16 00:31:12;;;;;;;10.93;5.90;;;14.80;99.90;;;;;;5012026;28;20092;-83
2023/09/16 00:33:38;;;;;;;8.15;5.93;;;14.70;99.90;;;;;;5006614;28;20092;-83
2023/09/16 00:36:04;;;;;;;9.00;5.95;;;14.70;99.90;;;;;;5005304;28;20058;-83
2023/09/16 00:38:30;;;;;;;9.85;6.28;;;14.70;99.90;;;;;;4998853;28;20022;-84
2023/09/16 00:40:56;;;;;;;10.77;5.93;;;14.70;99.90;;;;;;5009056;28;20037;-83
2023/09/16 00:43:21;;;;;;;7.38;5.80;;;14.70;99.90;;;;;;4994581;28;20066;-84
2023/09/16 00:45:47;;;;;;;9.75;5.95;;;14.60;99.90;;;;;;5022928;28;20375;-84
2023/09/16 00:48:15;;;;;;;10.95;6.35;;;14.70;99.90;;;;;;5012290;28;20031;-84
2023/09/16 00:50:42;;;;;;;8.07;6.65;;;14.60;99.90;;;;;;4992589;28;20392;-83
2023/09/16 00:53:09;;;;;;;9.38;6.43;;;14.60;99.90;;;;;;5008248;28;20121;-84
2023/09/16 00:55:42;;;;;;;12.90;6.38;;;14.60;99.90;;;;;;5024032;28;20022;-84
2023/09/16 00:58:11;;;;;;;13.98;6.97;;;14.60;99.90;;;;;;5027315;28;20100;-84
2023/09/16 01:00:55;;;;;;;9.98;6.78;;;14.60;99.90;;;;;;4994832;28;20044;-84
2023/09/16 01:03:22;;;;;;;7.50;6.43;;;14.50;99.90;;;;;;5027943;28;20057;-84
2023/09/16 01:05:48;;;;;;;9.13;6.00;;;14.50;99.90;;;;;;5010757;28;20091;-84
2023/09/16 01:08:15;;;;;;;7.30;5.97;;;14.50;99.90;;;;;;5028059;28;20110;-84
2023/09/16 01:10:53;;;;;;;12.07;7.20;;;14.60;99.90;;;;;;5010987;28;20044;-84
2023/09/16 01:13:19;;;;;;;11.18;6.38;;;14.50;99.90;;;;;;5000688;28;20057;-84
2023/09/16 01:15:59;;;;;;;13.30;6.88;;;14.50;99.90;;;;;;5009621;28;20034;-83
2023/09/16 01:18:39;;;;;;;12.40;7.05;;;14.50;99.90;;;;;;4998295;28;20026;-83
2023/09/16 01:21:06;;;;;;;9.60;6.78;;;14.50;99.90;;;;;;4998833;28;20081;-84
2023/09/16 01:23:32;;;;;;;13.18;7.38;;;14.50;99.90;;;;;;4992716;28;20389;-84
2023/09/16 01:25:58;;;;;;;11.50;6.80;;;14.50;99.90;;;;;;5028827;28;20038;-84
2023/09/16 01:28:25;;;;;;;8.27;6.22;;;14.50;99.90;;;;;;5003799;28;20031;-83
2023/09/16 01:30:58;;;;;;;10.25;6.70;;;14.40;99.90;;;;;;5013706;28;20038;-84
2023/09/16 01:33:36;;;;;;;9.13;6.72;;;14.40;99.90;;;;;;4997529;28;20719;-83
2023/09/16 01:36:12;;;;;;;8.55;7.00;;;14.40;99.90;;;;;;5014900;28;20415;-83
2023/09/16 01:38:39;;;;;;;8.07;6.32;;;14.30;99.90;;;;;;4998489;28;20133;-83
2023/09/16 01:41:07;;;;;;;9.65;7.35;;;14.40;99.90;;;;;;5027452;28;20532;-83
2023/09/16 01:43:33;;;;;;;14.82;7.32;;;14.30;99.90;;;;;;5012817;28;20030;-83
2023/09/16 01:45:59;;;;;;;11.80;7.60;;;14.30;99.90;;;;;;5013852;28;20033;-83
2023/09/16 01:48:25;;;;;;;15.00;7.20;;;14.20;99.90;;;;;;4997578;28;20033;-83
2023/09/16 01:50:51;;;;;;;9.23;7.30;;;14.30;99.90;;;;;;5002386;28;20031;-83
2023/09/16 01:53:16;;;;;;;14.57;8.43;;;14.20;99.90;;;;;;4993431;28;20107;-83
2023/09/16 01:55:42;;;;;;;10.77;7.70;;;14.20;99.90;;;;;;5030577;28;20525;-84
2023/09/16 01:58:08;;;;;;;10.95;7.75;;;14.30;99.90;;;;;;5031244;28;20026;-85
2023/09/16 02:00:35;;;;;;;10.40;7.72;;;14.30;99.90;;;;;;5013876;28;20117;-83
2023/09/16 02:03:02;;;;;;;7.78;6.35;;;14.30;99.90;;;;;;5007309;28;20022;-84
2023/09/16 02:05:29;;;;;;;10.38;7.90;;;14.30;99.90;;;;;;5006262;28;20763;-84
2023/09/16 02:07:57;;;;;;;11.57;8.25;;;14.20;99.90;;;;;;5012030;28;20113;-83
2023/09/16 02:10:23;;;;;;;10.00;7.50;;;14.30;99.90;;;;;;5006178;28;20022;-83
2023/09/16 02:12:49;;;;;;;10.73;8.20;;;14.30;99.90;;;;;;5010709;28;20034;-83
2023/09/16 02:15:15;;;;;;;11.70;8.15;;;14.20;99.90;;;;;;5013365;28;20112;-83
2023/09/16 02:17:41;;;;;;;11.13;8.48;;;14.20;99.90;;;;;;5013527;28;20113;-84
2023/09/16 02:20:10;;;;;;;16.90;8.05;;;14.20;99.90;;;;;;5030203;28;20534;-83
2023/09/16 02:22:38;;;;;;;9.82;7.82;;;14.20;99.90;;;;;;5013744;28;20030;-84
2023/09/16 02:25:04;;;;;;;9.85;7.88;;;14.20;99.90;;;;;;5001538;28;20069;-83
2023/09/16 02:27:30;;;;;;;10.57;8.23;;;14.10;99.90;;;;;;5013458;28;20025;-83
2023/09/16 02:29:55;;;;;;;14.27;8.68;;;14.00;99.90;;;;;;5012833;28;20034;-84
2023/09/16 02:32:21;;;;;;;12.88;9.18;;;13.90;99.90;;;;;;5002522;28;20050;-83
2023/09/16 02:34:46;;;;;;;12.07;8.93;;;13.90;99.90;;;;;;5006119;28;20104;-83
2023/09/16 02:37:12;;;;;;;12.55;8.80;;;13.90;99.90;;;;;;4992303;28;20030;-83
2023/09/16 02:39:39;;;;;;;9.35;7.85;;;13.90;99.90;;;;;;4997232;28;20112;-83
2023/09/16 02:42:05;;;;;;;9.65;8.18;;;13.90;99.90;;;;;;5010830;28;20084;-83
2023/09/16 02:44:31;;;;;;;11.60;8.02;;;13.90;99.90;;;;;;5000752;28;20030;-83
2023/09/16 02:47:28;;;;;;;13.40;8.95;;;13.90;99.90;;;;;;5010053;28;20038;-83
2023/09/16 02:49:54;;;;;;;11.85;8.60;;;13.90;99.90;;;;;;4997957;28;20381;-83
2023/09/16 02:52:20;;;;;;;10.98;8.32;;;13.90;99.90;;;;;;5012933;28;20120;-83
2023/09/16 02:54:46;;;;;;;18.45;10.77;;;13.90;99.90;;;;;;4996516;28;20033;-83
2023/09/16 02:57:12;;;;;;;15.10;9.25;;;13.80;99.90;;;;;;4992847;28;20026;-83
2023/09/16 02:59:38;;;;;;;13.18;9.75;;;13.80;99.90;;;;;;5026522;28;20030;-84
2023/09/16 03:02:04;;;;;;;12.88;9.35;;;13.80;99.90;;;;;;4998130;28;20022;-83
2023/09/16 03:04:29;;;;;;;12.13;9.48;;;13.80;99.90;;;;;;5029379;28;20037;-83
2023/09/16 03:06:55;;;;;;;11.73;8.80;;;13.70;99.90;;;;;;5012612;28;20076;-84
2023/09/16 03:09:22;;;;;;;11.82;9.20;;;13.70;99.90;;;;;;5003857;28;20032;-83
2023/09/16 03:11:48;;;;;;;11.80;8.13;;;13.60;99.90;;;;;;5012787;28;20783;-83
2023/09/16 03:14:14;;;;;;;11.43;9.02;;;13.50;99.90;;;;;;5012572;28;20026;-84
2023/09/16 03:16:40;;;;;;;13.32;8.98;;;13.50;99.90;;;;;;5029226;28;20462;-83
2023/09/16 03:19:06;;;;;;;15.63;9.60;;;13.40;99.90;;;;;;5010529;28;20029;-84
2023/09/16 03:21:31;;;;;;;15.15;9.48;;;13.40;99.90;;;;;;4997737;28;20630;-83
2023/09/16 03:24:01;;;;;;;16.63;10.07;;;13.40;99.90;;;;;;5007543;28;20032;-83
2023/09/16 03:26:28;;;;;;;12.48;9.77;;;13.40;99.90;;;;;;5007068;28;20149;-83
2023/09/16 03:28:54;;;;;;;13.68;10.27;;;13.40;99.90;;;;;;4995034;28;20434;-83
2023/09/16 03:31:30;;;;;;;22.52;10.07;;;13.40;99.90;;;;;;5028447;28;20033;-84
2023/09/16 03:34:04;;;;;;;14.82;9.63;;;13.50;99.90;;;;;;5013129;28;20034;-84
2023/09/16 03:36:31;;;;;;;15.57;10.77;;;13.40;99.90;;;;;;5022361;28;20461;-83
2023/09/16 03:38:56;;;;;;;14.35;9.85;;;13.40;99.90;;;;;;5011719;28;20057;-83
2023/09/16 03:41:23;;;;;;;14.13;11.00;;;13.30;99.90;;;;;;4990633;28;20029;-84
2023/09/16 03:43:58;;;;;;;15.98;9.75;;;13.30;99.90;;;;;;5018981;28;20504;-84
2023/09/16 03:46:24;;;;;;;16.90;10.68;;;13.30;99.90;;;;;;4996605;28;20026;-83
2023/09/16 03:48:51;;;;;;;17.23;10.80;;;13.30;99.90;;;;;;5013603;28;20026;-84
2023/09/16 03:51:17;;;;;;;14.98;10.98;;;13.30;99.90;;;;;;5014696;28;20037;-83
2023/09/16 03:53:42;;;;;;;13.73;10.18;;;13.30;99.90;;;;;;5015634;28;20042;-84
2023/09/16 03:56:08;;;;;;;18.30;11.63;;;13.30;99.90;;;;;;5015240;28;20385;-84
2023/09/16 03:58:36;;;;;;;15.02;11.68;;;13.30;99.90;;;;;;5006004;28;20033;-83
2023/09/16 04:01:02;;;;;;;14.73;11.23;;;13.30;99.90;;;;;;5020066;28;20733;-84
2023/09/16 04:03:30;;;;;;;17.55;10.90;;;13.20;99.90;;;;;;4996342;28;20026;-83
2023/09/16 04:05:59;;;;;;;18.52;12.20;;;13.30;99.90;;;;;;5000730;28;20037;-83
2023/09/16 04:08:26;;;;;;;18.63;12.18;;;13.20;99.90;;;;;;5019606;28;20772;-83
2023/09/16 04:10:52;;;;;;;23.92;12.70;;;13.20;99.90;;;;;;4998490;28;20050;-84
2023/09/16 04:13:18;;;;;;;17.98;11.45;;;13.20;99.90;;;;;;5015141;28;20065;-83
2023/09/16 04:15:44;;;;;;;19.33;11.90;;;13.30;99.90;;;;;;5012471;28;20038;-83
2023/09/16 04:18:10;;;;;;;15.80;11.85;;;13.30;99.90;;;;;;5009573;28;20385;-84
2023/09/16 04:20:35;;;;;;;15.98;10.95;;;13.30;99.90;;;;;;4997530;28;20026;-84
2023/09/16 04:23:01;;;;;;;16.25;11.77;;;13.30;99.90;;;;;;4995700;28;20493;-84
2023/09/16 04:25:27;;;;;;;16.23;11.13;;;13.30;99.90;;;;;;4998370;28;20029;-84
2023/09/16 04:27:53;;;;;;;17.08;11.35;;;13.20;99.90;;;;;;5014071;28;20037;-84
2023/09/16 04:30:19;;;;;;;16.75;12.65;;;13.20;99.90;;;;;;5015403;28;20788;-83
2023/09/16 04:32:46;;;;;;;15.60;12.20;;;13.20;99.90;;;;;;4999922;28;20030;-84
2023/09/16 04:35:12;;;;;;;17.25;12.68;;;13.20;99.90;;;;;;4998035;28;20037;-84
2023/09/16 04:37:38;;;;;;;15.98;12.65;;;13.20;99.90;;;;;;4995795;28;20030;-84
2023/09/16 04:40:22;;;;;;;20.45;12.27;;;13.20;99.90;;;;;;5001165;28;20026;-83
2023/09/16 04:42:49;;;;;;;19.98;12.60;;;13.10;99.90;;;;;;5018198;28;20033;-83
2023/09/16 04:45:15;;;;;;;19.27;12.82;;;13.10;99.90;;;;;;5010872;28;20026;-84
2023/09/16 04:47:41;;;;;;;20.90;14.05;;;13.10;99.90;;;;;;4997908;28;20036;-83
2023/09/16 04:50:07;;;;;;;19.20;13.02;;;13.00;99.90;;;;;;5011409;28;20336;-83
2023/09/16 04:52:35;;;;;;;20.90;14.40;;;13.00;99.90;;;;;;5029561;28;20030;-83
2023/09/16 04:55:04;;;;;;;21.63;15.13;;;13.00;99.90;;;;;;5016868;28;20030;-83
2023/09/16 04:57:30;;;;;;;20.23;13.85;;;13.00;99.90;;;;;;4996027;28;20030;-83
2023/09/16 04:59:57;;;;;;;19.50;14.13;;;13.10;99.90;;;;;;5001689;28;20544;-84
2023/09/16 05:02:25;;;;;;;22.50;14.52;;;13.10;99.90;;;;;;5013214;28;20022;-83
2023/09/16 05:04:50;;;;;;;21.08;14.95;;;13.10;99.90;;;;;;5014312;28;20042;-83
2023/09/16 05:07:36;;;;;;;26.10;15.95;;;13.10;99.90;;;;;;4997494;28;20125;-83
2023/09/16 05:10:02;;;;;;;23.27;15.57;;;13.20;99.90;;;;;;5014770;28;20311;-82
2023/09/16 05:12:28;;;;;;;20.98;14.52;;;13.20;99.90;;;;;;5006163;28;20132;-83
2023/09/16 05:14:54;;;;;;;26.45;15.38;;;13.10;99.90;;;;;;5008921;28;20477;-83
2023/09/16 05:17:40;;;;;;;25.00;15.57;;;13.10;99.90;;;;;;5028682;28;20037;-83
2023/09/16 05:20:07;;;;;;;23.42;15.88;;;13.10;99.90;;;;;;5014830;28;20113;-82
2023/09/16 05:22:34;;;;;;;22.95;16.55;;;13.20;99.90;;;;;;5030260;28;20028;-83
2023/09/16 05:25:04;;;;;;;29.65;17.02;;;13.20;99.90;;;;;;5022996;28;20030;-82
2023/09/16 05:27:30;;;;;;;23.80;16.98;;;13.20;99.90;;;;;;5014240;28;20083;-83
2023/09/16 05:30:12;;;;;;;25.80;17.00;;;13.20;99.90;;;;;;5014329;28;20532;-82
2023/09/16 05:32:38;;;;;;;;;;;13.30;99.90;;;;;;5019605;28;20121;-83
2023/09/16 05:35:04;;;;;;;26.38;16.63;;;13.30;99.90;;;;;;5002523;28;20348;-83
2023/09/16 05:37:30;;;;;;;28.60;18.73;;;13.40;99.90;;;;;;5025205;28;20056;-82
2023/09/16 05:39:56;;;;;;;24.23;17.45;;;13.40;99.90;;;;;;5008707;28;20027;-82
2023/09/16 05:42:22;;;;;;;25.98;17.65;;;13.50;99.90;;;;;;5013866;28;20028;-83
2023/09/16 05:48:35;;;;;;;30.60;17.17;;;13.60;99.90;;;;;;5005794;28;20044;-82
2023/09/16 05:51:02;;;;;;;24.40;15.52;;;13.70;99.90;;;;;;4999874;28;20031;-82
2023/09/16 05:53:30;;;;;;;21.65;15.75;;;13.70;99.90;;;;;;5000527;28;20052;-83
2023/09/16 05:56:06;;;;;;;22.60;16.63;;;13.80;99.90;;;;;;5030192;28;20040;-83
2023/09/16 05:58:36;;;;;;;24.30;17.55;;;13.80;99.90;;;;;;5026903;28;20022;-83
2023/09/16 06:01:02;;;;;;;24.35;17.17;;;13.80;99.90;;;;;;5028307;28;20378;-82
2023/09/16 06:03:29;;;;;;;21.08;15.75;;;13.90;99.90;;;;;;4995431;28;20022;-83
2023/09/16 06:05:59;;;;;;;23.35;15.80;;;14.00;99.90;;;;;;5017990;28;20359;-83
2023/09/16 06:08:25;;;;;;;18.35;14.27;;;14.10;99.90;;;;;;5012910;28;20041;-83
2023/09/16 06:10:51;;;;;;;23.10;15.98;;;14.10;99.90;;;;;;5010623;28;20088;-83
2023/09/16 06:13:17;;;;;;;22.20;13.93;;;14.30;99.90;;;;;;5010867;28;20038;-83
2023/09/16 06:15:45;;;;;;;20.15;15.07;;;14.30;99.90;;;;;;5002099;28;20080;-83
2023/09/16 06:18:11;;;;;;;20.75;15.55;;;14.40;99.90;;;;;;5020682;28;20052;-83
2023/09/16 06:20:39;;;;;;;19.77;13.55;;;14.50;99.90;;;;;;4995246;28;20045;-82
2023/09/16 06:23:05;;;;;;;22.50;14.85;;;14.50;99.90;;;;;;5005725;28;20058;-83
2023/09/16 06:25:33;;;;;;;19.63;13.25;;;14.60;99.90;;;;;;5015270;28;20540;-83
2023/09/16 06:27:59;;;;;;;21.52;14.90;;;14.70;99.90;;;;;;5015292;28;20148;-83
2023/09/16 06:30:26;;;;;;;22.20;13.23;;;14.80;99.90;;;;;;5021430;28;20026;-83
2023/09/16 06:32:55;;;;;;;16.42;12.95;;;14.80;99.90;;;;;;4984193;28;20038;-82
2023/09/16 06:35:22;;;;;;;19.70;14.02;;;14.90;99.90;;;;;;5018084;28;20022;-83
2023/09/16 06:37:49;;;;;;;18.70;12.90;;;15.00;99.90;;;;;;4997482;28;20030;-83
2023/09/16 06:40:17;;;;;;;18.40;13.15;;;15.10;99.90;;;;;;5015844;28;20035;-82
2023/09/16 06:42:43;;;;;;;18.33;13.10;;;15.20;99.90;;;;;;5005458;28;20042;-83
2023/09/16 06:45:12;;;;;;;19.98;13.23;;;15.40;99.90;;;;;;5023335;28;20041;-82
2023/09/16 06:47:38;;;;;;;19.23;13.10;;;15.60;99.90;;;;;;5007225;28;20037;-83
2023/09/16 06:50:06;;;;;;;18.65;12.55;;;15.70;99.90;;;;;;5017539;28;20393;-82
2023/09/16 06:52:31;;;;;;;17.17;12.75;;;15.90;99.90;;;;;;5017632;28;20068;-82
2023/09/16 06:54:57;;;;;;;18.63;12.63;;;16.10;99.90;;;;;;5019687;28;20046;-83
2023/09/16 06:57:23;;;;;;;18.23;13.60;;;16.20;99.90;;;;;;5006979;28;20080;-83
2023/09/16 06:59:49;;;;;;;16.45;12.27;;;16.40;99.90;;;;;;4998765;28;20030;-83
2023/09/16 07:02:15;;;;;;;15.93;12.68;;;16.60;99.90;;;;;;5026899;28;20022;-82
2023/09/16 07:04:42;;;;;;;18.05;11.93;;;16.70;99.90;;;;;;5016038;28;20568;-83
2023/09/16 07:07:12;;;;;;;20.02;12.55;;;16.80;99.90;;;;;;5017310;28;20033;-83
2023/09/16 07:09:38;;;;;;;13.98;11.52;;;16.90;99.90;;;;;;5011085;28;20026;-83
2023/09/16 07:12:05;;;;;;;16.13;12.30;;;17.00;99.90;;;;;;5020275;28;20610;-83
2023/09/16 07:14:31;;;;;;;18.33;12.80;;;17.10;99.90;;;;;;5006521;28;20041;-83
2023/09/16 07:16:57;;;;;;;18.52;13.57;;;17.20;99.90;;;;;;5014411;28;20030;-83
2023/09/16 07:19:23;;;;;;;16.33;12.02;;;17.30;99.90;;;;;;5022701;28;20034;-83
2023/09/16 07:21:48;;;;;;;18.63;12.93;;;17.40;99.90;;;;;;5005666;28;20449;-83
2023/09/16 07:24:14;;;;;;;17.45;11.45;;;17.50;99.90;;;;;;4997203;28;20749;-83
2023/09/16 07:26:43;;;;;;;17.55;11.95;;;17.60;99.90;;;;;;5007314;28;20045;-83
2023/09/16 07:29:10;;;;;;;17.42;12.32;;;17.60;99.90;;;;;;5004143;28;20414;-83
2023/09/16 07:31:36;;;;;;;13.77;11.20;;;17.70;99.90;;;;;;5021825;28;20042;-83
2023/09/16 07:34:02;;;;;;;18.90;11.70;;;17.80;99.90;;;;;;5015005;28;20038;-82
2023/09/16 07:36:28;;;;;;;14.07;10.98;;;17.80;99.90;;;;;;4985133;28;20374;-82
2023/09/16 07:38:53;;;;;;;15.93;12.27;;;17.90;99.90;;;;;;4997384;28;20033;-83
2023/09/16 07:41:19;;;;;;;18.20;11.43;;;18.00;99.90;;;;;;5001584;28;20052;-83
2023/09/16 07:43:45;;;;;;;20.27;12.10;;;18.10;99.90;;;;;;5013871;28;20073;-83
2023/09/16 07:46:10;;;;;;;14.88;12.45;;;18.10;99.90;;;;;;5003483;28;20069;-83
2023/09/16 07:48:36;;;;;;;16.75;11.68;;;18.10;99.90;;;;;;5023598;28;20046;-83
2023/09/16 07:51:02;;;;;;;17.13;11.80;;;18.20;99.90;;;;;;4995906;28;20030;-83
2023/09/16 07:53:28;;;;;;;20.50;12.65;;;18.20;99.90;;;;;;4999554;28;20026;-83
2023/09/16 07:55:54;;;;;;;15.25;12.10;;;18.30;99.90;;;;;;5019897;28;20033;-84
2023/09/16 07:58:20;;;;;;;16.90;12.23;;;18.40;99.90;;;;;;5007478;28;20018;-84
2023/09/16 08:00:45;;;;;;;14.88;11.32;;;18.50;99.90;;;;;;5016569;28;20381;-83
2023/09/16 08:03:11;;;;;;;20.08;13.13;;;18.50;99.90;;;;;;4994185;28;20023;-83
2023/09/16 08:05:37;;;;;;;15.88;12.52;;;18.60;99.90;;;;;;5008022;28;20062;-83
2023/09/16 08:08:03;;;;;;;18.05;11.38;;;18.60;99.90;;;;;;5003171;28;20050;-83
2023/09/16 08:10:29;;;;;;;16.80;12.27;;;18.60;99.90;;;;;;5015235;28;20424;-83
2023/09/16 08:13:17;;;;;;;16.65;11.90;;;18.70;99.90;;;;;;5020708;28;20133;-83
2023/09/16 08:15:43;;;;;;;18.20;12.50;;;18.70;99.90;;;;;;5022117;28;20436;-83
2023/09/16 08:18:08;;;;;;;19.65;12.95;;;18.80;99.90;;;;;;5022479;28;20026;-83
2023/09/16 08:20:34;;;;;;;22.20;13.15;;;18.90;99.90;;;;;;5025499;28;20037;-83
2023/09/16 08:23:00;;;;;;;16.27;11.70;;;19.00;99.90;;;;;;4992451;28;20048;-83
2023/09/16 08:25:25;;;;;;;16.70;13.30;;;19.00;99.90;;;;;;4999817;28;20062;-83
2023/09/16 08:27:52;;;;;;;20.63;12.73;;;19.00;99.90;;;;;;5003806;28;20424;-83
2023/09/16 08:30:42;;;;;;;21.45;11.82;;;19.10;99.90;;;;;;5002534;28;20075;-83
2023/09/16 08:33:20;;;;;;;22.07;11.10;;;19.20;99.90;;;;;;5023699;28;20054;-83
2023/09/16 08:35:46;;;;;;;16.50;11.77;;;19.30;99.90;;;;;;4996887;28;20018;-83
2023/09/16 08:38:11;;;;;;;16.55;12.73;;;19.40;99.90;;;;;;5024359;28;20026;-84
2023/09/16 08:40:38;;;;;;;15.45;10.18;;;20.20;99.90;;;;;;5026390;28;20089;-83
2023/09/16 08:43:21;;;;;;;13.88;10.00;;;21.70;99.90;;;;;;5002793;28;20026;-84
2023/09/16 08:45:58;;;;;;;26.63;11.38;;;23.20;99.90;;;;;;4999370;28;20033;-83
2023/09/16 08:48:26;;;;;;;13.55;10.15;;;23.80;99.90;;;;;;5012125;28;20026;-83
2023/09/16 08:50:53;;;;;;;14.18;10.25;;;24.20;99.90;;;;;;5014776;28;20041;-83
2023/09/16 08:53:34;;;;;;;11.25;9.65;;;24.20;99.90;;;;;;5004677;28;20046;-84
2023/09/16 08:56:01;;;;;;;12.23;8.52;;;25.40;99.90;;;;;;5003601;28;20061;-84
2023/09/16 08:58:27;;;;;;;11.77;9.73;;;26.90;99.90;;;;;;5010175;28;20026;-84
2023/09/16 09:00:53;;;;;;;13.98;9.05;;;28.00;99.90;;;;;;4988573;28;20033;-83
2023/09/16 09:03:19;;;;;;;10.95;8.65;;;27.90;99.90;;;;;;5010660;28;20018;-83
2023/09/16 09:05:45;;;;;;;9.80;8.68;;;27.10;99.90;;;;;;5009659;28;20061;-83
2023/09/16 09:08:11;;;;;;;13.98;10.40;;;27.60;99.90;;;;;;5010256;28;20026;-83
2023/09/16 09:10:38;;;;;;;12.27;9.90;;;27.40;99.90;;;;;;5002405;28;20030;-83
2023/09/16 09:13:12;;;;;;;12.27;8.75;;;27.30;99.90;;;;;;5026070;28;20087;-83
2023/09/16 09:15:39;;;;;;;12.30;9.32;;;26.80;99.90;;;;;;5000675;28;20039;-84
2023/09/16 09:18:06;;;;;;;11.57;8.07;;;26.60;99.90;;;;;;4998371;28;20738;-83
2023/09/16 09:20:32;;;;;;;11.98;8.23;;;26.80;99.90;;;;;;5026293;28;20030;-83
2023/09/16 09:22:59;;;;;;;10.32;8.98;;;26.70;99.90;;;;;;4996549;28;20113;-84
2023/09/16 09:25:31;;;;;;;10.98;8.43;;;26.40;99.90;;;;;;5007033;28;20123;-83
2023/09/16 09:28:00;;;;;;;12.30;9.15;;;25.70;99.90;;;;;;5019356;28;20032;-84
2023/09/16 09:30:29;;;;;;;11.52;9.32;;;25.30;99.90;;;;;;5007019;28;20081;-83
2023/09/16 09:32:56;;;;;;;9.93;8.10;;;24.80;99.90;;;;;;5002722;28;20025;-83
2023/09/16 09:35:29;;;;;;;11.05;8.55;;;25.10;99.90;;;;;;5004275;28;20033;-83
2023/09/16 09:37:56;;;;;;;9.20;8.10;;;25.60;99.90;;;;;;5009618;28;20053;-84
2023/09/16 09:40:22;;;;;;;10.07;7.95;;;25.70;99.90;;;;;;5028850;28;20100;-84
2023/09/16 09:42:50;;;;;;;8.38;7.57;;;26.20;99.90;;;;;;5026805;28;20446;-83
2023/09/16 09:45:18;;;;;;;11.45;8.10;;;26.80;99.90;;;;;;5022823;28;20036;-84
2023/09/16 09:47:45;;;;;;;9.63;6.93;;;27.40;99.90;;;;;;5018778;28;20041;-84
2023/09/16 09:50:16;;;;;;;19.05;8.23;;;27.80;99.90;;;;;;4994563;28;20056;-84
2023/09/16 09:52:49;;;;;;;9.25;7.97;;;27.80;99.90;;;;;;5011215;28;20585;-83
2023/09/16 09:55:20;;;;;;;9.70;6.50;;;28.30;99.90;;;;;;5029518;28;20034;-84
2023/09/16 09:57:46;;;;;;;;;;;28.80;99.90;;;;;;5006170;28;20026;-84
2023/09/16 10:00:16;;;;;;;8.20;6.50;;;29.20;99.90;;;;;;5029002;28;19912;-84
2023/09/16 10:02:43;;;;;;;8.77;6.70;;;29.10;99.90;;;;;;5004958;28;20504;-84
2023/09/16 10:05:16;;;;;;;6.82;6.13;;;29.30;99.90;;;;;;5005127;28;20057;-84
2023/09/16 10:07:43;;;;;;;7.97;6.22;;;29.40;99.90;;;;;;4996744;28;20121;-84
2023/09/16 10:10:20;;;;;;;7.05;6.32;;;29.80;99.90;;;;;;5012833;28;20022;-83
2023/09/16 10:12:47;;;;;;;7.55;6.72;;;29.80;99.90;;;;;;5027456;28;20033;-84
2023/09/16 10:15:13;;;;;;;8.95;6.10;;;29.70;99.90;;;;;;5000057;28;20034;-84
2023/09/16 10:17:42;;;;;;;9.13;5.78;;;29.60;99.90;;;;;;5012728;28;20121;-84
2023/09/16 10:20:11;;;;;;;8.38;6.10;;;30.00;99.90;;;;;;5013331;28;20022;-84
2023/09/16 10:22:40;;;;;;;7.18;5.97;;;29.70;99.90;;;;;;5004449;28;20541;-83
2023/09/16 10:25:07;;;;;;;6.35;5.68;;;29.60;99.90;;;;;;5002107;28;20516;-83
2023/09/16 10:27:55;;;;;;;6.25;5.65;;;29.60;99.90;;;;;;4999966;28;20072;-84
2023/09/16 10:30:21;;;;;;;6.50;5.72;;;29.40;99.90;;;;;;4992826;28;20042;-83
2023/09/16 10:32:48;;;;;;;5.45;4.82;;;28.70;99.90;;;;;;5009821;28;20030;-84
2023/09/16 10:35:14;;;;;;;6.88;5.50;;;29.00;99.90;;;;;;4997619;28;20398;-84
2023/09/16 10:37:41;;;;;;;6.30;5.70;;;29.30;99.90;;;;;;5025150;28;20038;-84
2023/09/16 10:40:09;;;;;;;6.13;5.53;;;28.90;99.90;;;;;;5002677;28;20026;-84
2023/09/16 10:42:36;;;;;;;6.95;5.40;;;29.20;99.90;;;;;;4984513;28;20037;-84
2023/09/16 10:45:03;;;;;;;5.75;5.25;;;29.70;99.90;;;;;;4993177;28;20414;-83
2023/09/16 10:51:22;;;;;;;6.53;4.95;;;30.40;99.90;;;;;;4999211;28;20112;-85
2023/09/16 10:54:01;;;;;;;7.75;5.05;;;30.30;99.90;;;;;;5003055;28;20480;-85
2023/09/16 10:56:36;;;;;;;7.95;5.45;;;30.40;99.90;;;;;;5021827;28;20405;-84
2023/09/16 10:59:10;;;;;;;5.40;4.85;;;29.40;99.90;;;;;;5005583;28;20370;-84
2023/09/16 11:02:17;;;;;;;6.32;5.72;;;29.60;99.90;;;;;;5012707;28;20026;-84
2023/09/16 11:04:46;;;;;;;5.50;4.93;;;28.70;99.90;;;;;;5005255;28;20052;-84
2023/09/16 11:07:13;;;;;;;8.82;5.20;;;29.00;99.90;;;;;;4995670;28;20042;-84
2023/09/16 11:09:40;;;;;;;9.35;4.60;;;29.50;99.90;;;;;;5004281;28;20065;-84
2023/09/16 11:12:06;;;;;;;5.18;4.30;;;30.00;99.90;;;;;;4998109;28;20092;-83
2023/09/16 11:14:32;;;;;;;5.03;4.53;;;30.40;99.90;;;;;;5032303;28;20033;-83
2023/09/16 11:16:59;;;;;;;4.88;4.40;;;30.30;99.90;;;;;;5013346;28;20038;-83
2023/09/16 11:19:25;;;;;;;6.90;4.60;;;30.50;99.90;;;;;;5009074;28;20374;-84
2023/09/16 11:21:55;;;;;;;6.15;4.50;;;31.00;99.90;;;;;;5018533;28;20041;-84
2023/09/16 11:24:20;;;;;;;4.57;4.18;;;31.10;99.90;;;;;;5008198;28;20034;-84
2023/09/16 11:26:48;;;;;;;4.15;3.75;;;31.00;98.80;;;;;;5018436;28;20084;-84
2023/09/16 11:29:22;;;;;;;5.20;4.28;;;31.00;99.30;;;;;;5002519;28;20491;-84
2023/09/16 11:31:48;;;;;;;5.38;3.90;;;30.30;98.90;;;;;;5024830;28;20026;-83
2023/09/16 11:34:17;;;;;;;4.68;4.28;;;30.60;99.40;;;;;;5002910;28;20113;-84
2023/09/16 11:36:47;;;;;;;4.20;3.88;;;30.80;99.40;;;;;;5016670;28;20088;-85
2023/09/16 11:39:18;;;;;;;8.33;4.53;;;31.10;98.90;;;;;;5010567;28;20076;-85
2023/09/16 11:41:45;;;;;;;;;;;30.60;98.80;;;;;;5005947;28;20053;-85
2023/09/16 11:44:11;;;;;;;5.72;3.90;;;31.00;98.20;;;;;;5005770;28;20004;-85
2023/09/16 11:46:38;;;;;;;4.95;3.58;;;31.60;97.80;;;;;;5001253;28;20065;-84
2023/09/16 11:49:05;;;;;;;4.57;4.18;;;31.30;97.10;;;;;;5008075;28;20085;-86
2023/09/16 11:51:32;;;;;;;4.30;3.90;;;31.50;96.90;;;;;;4995526;28;20038;-85
2023/09/16 11:53:58;;;;;;;4.93;3.85;;;31.60;96.80;;;;;;5009296;28;20037;-85
2023/09/16 11:56:27;;;;;;;4.20;3.80;;;31.60;96.00;;;;;;5004404;28;20089;-85
2023/09/16 11:58:54;;;;;;;4.05;3.40;;;31.70;95.40;;;;;;4993241;28;20040;-85
2023/09/16 12:01:24;;;;;;;7.97;3.70;;;31.10;95.50;;;;;;4994611;28;20654;-85
2023/09/16 12:03:50;;;;;;;3.65;3.35;;;30.90;95.90;;;;;;5015758;28;20748;-85
2023/09/16 12:06:21;;;;;;;5.32;3.95;;;30.80;95.50;;;;;;5011299;28;20030;-85
2023/09/16 12:08:47;;;;;;;4.30;3.42;;;30.70;94.10;;;;;;4995271;28;20030;-85
2023/09/16 12:11:14;;;;;;;4.32;3.92;;;30.80;95.50;;;;;;5000976;28;20044;-85
2023/09/16 12:13:40;;;;;;;3.97;3.40;;;30.70;96.00;;;;;;5007673;28;20034;-85
2023/09/16 12:16:06;;;;;;;8.13;3.85;;;31.20;95.50;;;;;;5010140;28;20021;-86
2023/09/16 12:18:32;;;;;;;3.40;3.10;;;31.10;93.90;;;;;;5011267;28;20034;-86
2023/09/16 12:20:58;;;;;;;4.55;3.60;;;31.30;93.90;;;;;;4997547;28;20737;-85
2023/09/16 12:23:26;;;;;;;4.35;3.15;;;31.20;93.10;;;;;;4997967;28;20538;-85
2023/09/16 12:25:52;;;;;;;5.90;3.08;;;31.20;94.10;;;;;;4995868;28;20042;-85
2023/09/16 12:28:23;;;;;;;3.83;3.08;;;30.90;93.90;;;;;;5011163;28;20425;-85
2023/09/16 12:30:51;;;;;;;4.38;3.40;;;30.30;94.00;;;;;;4994039;28;20068;-85
2023/09/16 12:33:19;;;;;;;5.80;3.70;;;30.10;95.00;;;;;;4991369;28;20038;-85
2023/09/16 12:35:48;;;;;;;3.58;3.03;;;29.90;95.20;;;;;;5007438;28;20031;-85
2023/09/16 12:38:17;;;;;;;4.97;3.20;;;29.40;96.10;;;;;;5010856;28;20032;-85
2023/09/16 12:40:45;;;;;;;3.55;3.10;;;29.10;93.60;;;;;;5010631;28;20044;-85
2023/09/16 12:43:11;;;;;;;3.17;2.90;;;29.10;95.40;;;;;;5019997;28;20065;-85
2023/09/16 12:45:38;;;;;;;3.42;2.92;;;29.00;95.50;;;;;;5010613;28;20676;-85
2023/09/16 12:48:05;;;;;;;5.45;3.65;;;28.70;93.20;;;;;;5001318;28;20062;-85
2023/09/16 12:50:32;;;;;;;5.93;3.28;;;28.80;95.20;;;;;;5010252;28;20042;-85